Time;durP1;ratioP1;P1;durP2;ratioP2;P2;SDS_P1;SDS_P2;PMS_P1;PMS_P2;Temp;Humidity;BMP_temperature;BMP_pressure;BME280_temperature;BME280_humidity;BME280_pressure;Samples;Min_cycle;Max_cycle;Signal;HPM_P1;HPM_P2
2021/06/09 00:29:06;;;;;;;25.55;21.52;;;18.60;99.90;;;;;;4803099;29;20080;-81
2021/06/09 00:32:13;;;;;;;24.83;22.00;;;18.60;99.90;;;;;;4854651;29;20152;-81
2021/06/09 00:37:21;;;;;;;23.88;21.40;;;18.40;99.90;;;;;;4906623;29;20593;-81
2021/06/09 00:39:47;;;;;;;29.20;23.92;;;18.30;99.90;;;;;;4945900;29;20071;-82
2021/06/09 00:42:22;;;;;;;27.90;24.08;;;18.20;99.90;;;;;;4946019;29;20090;-81
2021/06/09 00:44:50;;;;;;;27.17;24.45;;;18.20;99.90;;;;;;4945284;29;20048;-80
2021/06/09 00:47:20;;;;;;;27.33;24.63;;;18.10;99.90;;;;;;4949292;29;20072;-81
2021/06/09 00:49:47;;;;;;;27.73;24.90;;;18.10;99.90;;;;;;4947581;29;20138;-80
2021/06/09 00:52:13;;;;;;;27.20;24.30;;;18.10;99.90;;;;;;4948342;29;20133;-79
2021/06/09 00:54:40;;;;;;;31.98;25.50;;;18.10;99.90;;;;;;4949909;29;20075;-79
2021/06/09 00:57:07;;;;;;;27.55;24.85;;;18.10;99.90;;;;;;4951159;29;20075;-80
2021/06/09 00:59:34;;;;;;;28.45;25.65;;;18.00;99.90;;;;;;4952502;29;20063;-80
2021/06/09 01:02:02;;;;;;;30.10;27.10;;;18.00;99.90;;;;;;4953222;29;20052;-80
2021/06/09 01:04:28;;;;;;;27.55;24.67;;;18.00;99.90;;;;;;4950239;29;20111;-80
2021/06/09 01:06:54;;;;;;;28.55;25.67;;;18.00;99.90;;;;;;4946708;29;20087;-80
2021/06/09 01:09:21;;;;;;;30.75;27.15;;;18.00;99.90;;;;;;4943241;29;20102;-81
2021/06/09 01:11:48;;;;;;;29.30;26.20;;;18.00;99.90;;;;;;4943245;29;20056;-82
2021/06/09 01:14:14;;;;;;;29.30;26.35;;;18.00;99.90;;;;;;4942261;29;20052;-83
2021/06/09 01:16:41;;;;;;;28.98;26.05;;;18.00;99.90;;;;;;4942074;29;20048;-82
2021/06/09 01:19:09;;;;;;;29.02;26.20;;;18.00;99.90;;;;;;4942102;29;20128;-82
2021/06/09 01:21:36;;;;;;;29.98;26.88;;;18.00;99.90;;;;;;4941579;29;20086;-83
2021/06/09 01:24:03;;;;;;;29.63;26.60;;;17.90;99.90;;;;;;4940536;29;20111;-82
2021/06/09 01:26:31;;;;;;;28.98;25.85;;;17.90;99.90;;;;;;4940693;29;20086;-82
2021/06/09 01:29:00;;;;;;;28.88;25.90;;;17.90;99.90;;;;;;4940257;29;20051;-85
2021/06/09 01:31:27;;;;;;;33.15;27.08;;;17.90;99.90;;;;;;4940340;29;20054;-82
2021/06/09 01:33:53;;;;;;;27.70;23.95;;;17.80;99.90;;;;;;4939866;29;20083;-82
2021/06/09 01:36:22;;;;;;;27.83;24.85;;;17.70;99.90;;;;;;4943139;29;20103;-81
2021/06/09 01:38:50;;;;;;;28.52;25.65;;;17.70;99.90;;;;;;4942221;29;20433;-81
2021/06/09 01:41:21;;;;;;;29.45;26.35;;;17.70;99.90;;;;;;4943121;29;20112;-82
2021/06/09 01:43:48;;;;;;;32.10;28.75;;;17.60;99.90;;;;;;4948356;29;20051;-81
2021/06/09 01:46:16;;;;;;;32.75;29.15;;;17.60;99.90;;;;;;4949479;29;20075;-81
2021/06/09 01:48:42;;;;;;;34.53;30.90;;;17.60;99.90;;;;;;4943866;29;20130;-81
2021/06/09 01:51:09;;;;;;;35.60;31.75;;;17.60;99.90;;;;;;4942480;29;20126;-82
2021/06/09 01:53:35;;;;;;;35.70;31.83;;;17.60;99.90;;;;;;4942457;29;20111;-81
2021/06/09 01:56:04;;;;;;;36.13;32.40;;;17.50;99.90;;;;;;4942093;29;20079;-82
2021/06/09 01:58:30;;;;;;;34.63;30.92;;;17.50;99.90;;;;;;4943651;29;20075;-81
2021/06/09 02:00:57;;;;;;;36.50;31.33;;;17.50;99.90;;;;;;4947278;29;20086;-81
2021/06/09 02:03:23;;;;;;;35.72;31.63;;;17.50;99.90;;;;;;4943587;29;20106;-82
2021/06/09 02:05:50;;;;;;;36.15;30.90;;;17.40;99.90;;;;;;4941300;29;20131;-83
2021/06/09 02:08:16;;;;;;;34.85;30.95;;;17.30;99.90;;;;;;4939634;29;20087;-82
2021/06/09 02:10:44;;;;;;;35.80;31.70;;;17.30;99.90;;;;;;4938836;29;20104;-82
2021/06/09 02:13:15;;;;;;;33.40;29.90;;;17.20;99.90;;;;;;4938156;29;20059;-82
2021/06/09 02:15:42;;;;;;;34.17;30.48;;;17.10;99.90;;;;;;4939019;29;20131;-82
2021/06/09 02:18:10;;;;;;;34.33;29.25;;;17.00;99.90;;;;;;4939208;29;20083;-81
2021/06/09 02:20:39;;;;;;;33.53;29.90;;;17.00;99.90;;;;;;4938616;29;20107;-82
2021/06/09 02:23:09;;;;;;;32.65;29.23;;;16.90;99.90;;;;;;4939074;29;20139;-81
2021/06/09 02:25:36;;;;;;;31.17;27.80;;;16.90;99.90;;;;;;4940012;29;20194;-81
2021/06/09 02:28:04;;;;;;;30.98;27.67;;;16.80;99.90;;;;;;4940473;29;20139;-81
2021/06/09 02:30:32;;;;;;;31.40;28.20;;;16.80;99.90;;;;;;4940350;29;20111;-82
2021/06/09 02:32:58;;;;;;;32.28;28.10;;;16.80;99.90;;;;;;4939084;29;20134;-81
2021/06/09 02:35:25;;;;;;;32.95;29.35;;;16.70;99.90;;;;;;4939244;29;20115;-82
2021/06/09 02:37:54;;;;;;;52.25;36.78;;;16.60;99.90;;;;;;4939020;29;20524;-81
2021/06/09 02:40:21;;;;;;;49.80;35.45;;;16.50;99.90;;;;;;4939424;29;20143;-81
2021/06/09 02:42:48;;;;;;;45.88;32.50;;;16.50;99.90;;;;;;4939740;29;20136;-82
2021/06/09 02:45:18;;;;;;;42.53;33.13;;;16.40;99.90;;;;;;4939489;29;20120;-81
2021/06/09 02:47:48;;;;;;;39.15;29.35;;;16.40;99.90;;;;;;4939379;29;20079;-82
2021/06/09 02:50:17;;;;;;;33.95;27.33;;;16.40;99.90;;;;;;4938390;29;20063;-81
2021/06/09 02:52:50;;;;;;;36.55;28.20;;;16.40;99.90;;;;;;4938960;29;20059;-80
2021/06/09 02:55:25;;;;;;;29.27;26.10;;;16.40;99.90;;;;;;4938878;29;20055;-80
2021/06/09 02:58:02;;;;;;;28.67;25.60;;;16.40;99.90;;;;;;4938270;29;20071;-80
2021/06/09 03:00:34;;;;;;;33.47;27.38;;;16.40;99.90;;;;;;4939027;29;20119;-80
2021/06/09 03:03:10;;;;;;;30.90;27.53;;;16.40;99.90;;;;;;4938744;29;20107;-81
2021/06/09 03:05:43;;;;;;;29.00;25.88;;;16.40;99.90;;;;;;4939238;29;20087;-80
2021/06/09 03:08:13;;;;;;;;;;;16.40;99.90;;;;;;4942219;29;20155;-82
2021/06/09 03:10:47;;;;;;;28.88;25.83;;;16.40;99.90;;;;;;4942543;29;20025;-81
2021/06/09 03:13:34;;;;;;;27.92;25.02;;;16.40;99.90;;;;;;4942157;29;20735;-81
2021/06/09 03:16:05;;;;;;;29.80;25.48;;;16.40;99.90;;;;;;4942810;29;20051;-81
2021/06/09 03:18:40;;;;;;;27.35;24.42;;;16.40;99.90;;;;;;4943408;29;20079;-81
2021/06/09 03:21:08;;;;;;;29.20;26.08;;;16.40;99.90;;;;;;4942727;29;20056;-81
2021/06/09 03:23:47;;;;;;;31.10;28.00;;;16.30;99.90;;;;;;4943646;29;20047;-81
2021/06/09 03:26:19;;;;;;;30.35;27.10;;;16.20;99.90;;;;;;4943363;29;20057;-81
2021/06/09 03:28:48;;;;;;;;;;;16.10;99.90;;;;;;4944406;29;20217;-81
2021/06/09 03:31:17;;;;;;;;;;;16.10;99.90;;;;;;4943231;29;19933;-79
2021/06/09 03:33:48;;;;;;;;;;;16.10;99.90;;;;;;4942861;29;20343;-80
2021/06/09 03:36:19;;;;;;;;;;;16.20;99.90;;;;;;4943220;29;19994;-81
2021/06/09 03:38:47;;;;;;;;;;;16.30;99.90;;;;;;4942876;29;19923;-81
2021/06/09 03:41:15;;;;;;;;;;;16.40;99.90;;;;;;4943746;29;20017;-82
2021/06/09 03:43:46;;;;;;;;;;;16.40;99.90;;;;;;4944421;29;19950;-82
2021/06/09 03:46:12;;;;;;;;;;;16.50;99.90;;;;;;4944991;29;20483;-82
2021/06/09 03:48:40;;;;;;;;;;;16.60;99.90;;;;;;4943826;29;19962;-82
2021/06/09 03:51:08;;;;;;;;;;;16.70;99.90;;;;;;4943353;29;19963;-82
2021/06/09 03:53:36;;;;;;;;;;;16.60;99.90;;;;;;4944723;29;19962;-82
2021/06/09 03:56:04;;;;;;;;;;;16.60;99.90;;;;;;4945329;29;20005;-82
2021/06/09 03:58:31;;;;;;;;;;;16.70;99.90;;;;;;4945049;29;19976;-82
2021/06/09 04:00:57;;;;;;;;;;;16.70;99.90;;;;;;4945478;29;19927;-81
2021/06/09 04:03:23;;;;;;;;;;;16.80;99.90;;;;;;4944888;29;20391;-82
2021/06/09 04:05:51;;;;;;;;;;;16.80;99.90;;;;;;4946040;29;20391;-81
2021/06/09 04:08:19;;;;;;;;;;;17.10;99.90;;;;;;4944988;29;19986;-81
2021/06/09 04:10:47;;;;;;;;;;;17.40;99.90;;;;;;4944739;29;19922;-82
2021/06/09 04:13:13;;;;;;;;;;;17.70;99.90;;;;;;4944440;29;19962;-80
2021/06/09 04:15:40;;;;;;;;;;;18.00;99.90;;;;;;4945014;29;20010;-80
2021/06/09 04:18:07;;;;;;;;;;;18.30;99.90;;;;;;4942310;29;19966;-80
2021/06/09 04:20:34;;;;;;;;;;;18.60;99.90;;;;;;4948879;29;19923;-81
2021/06/09 04:23:00;;;;;;;;;;;18.90;99.90;;;;;;4944437;29;19986;-83
2021/06/09 04:25:28;;;;;;;;;;;19.10;99.90;;;;;;4942027;29;20051;-82
2021/06/09 04:27:54;;;;;;;;;;;19.20;99.90;;;;;;4941960;29;20011;-79
2021/06/09 04:30:21;;;;;;;;;;;19.10;99.90;;;;;;4943533;29;19922;-81
2021/06/09 04:32:49;;;;;;;;;;;19.00;99.90;;;;;;4945525;29;20470;-80
2021/06/09 04:35:15;;;;;;;;;;;19.10;99.90;;;;;;4943501;29;19930;-80
2021/06/09 04:37:41;;;;;;;;;;;19.20;99.90;;;;;;4941192;29;19962;-80
2021/06/09 04:40:14;;;;;;;;;;;19.50;99.90;;;;;;4940984;29;19926;-82
2021/06/09 04:42:42;;;;;;;;;;;19.70;99.90;;;;;;4942138;29;20057;-81
2021/06/09 04:45:08;;;;;;;;;;;19.60;99.90;;;;;;4943204;29;19977;-80
2021/06/09 04:47:34;;;;;;;;;;;19.70;99.90;;;;;;4943065;29;20014;-80
2021/06/09 04:50:01;;;;;;;;;;;19.80;99.90;;;;;;4942875;29;20017;-80
2021/06/09 04:52:27;;;;;;;;;;;19.90;99.90;;;;;;4941606;29;20419;-80
2021/06/09 04:54:53;;;;;;;;;;;20.00;99.90;;;;;;4941732;29;20415;-81
2021/06/09 04:57:19;;;;;;;;;;;20.00;99.90;;;;;;4943323;29;19934;-79
2021/06/09 04:59:47;;;;;;;;;;;19.90;99.90;;;;;;4943008;29;20027;-81
2021/06/09 05:02:13;;;;;;;;;;;19.90;99.90;;;;;;4944291;29;19965;-81
2021/06/09 05:04:39;;;;;;;;;;;20.10;99.90;;;;;;4942591;29;19930;-81
2021/06/09 05:07:05;;;;;;;;;;;20.10;99.90;;;;;;4942072;29;20057;-81
2021/06/09 05:09:31;;;;;;;;;;;20.10;99.90;;;;;;4942533;29;19990;-81
2021/06/09 05:12:01;;;;;;;;;;;20.30;99.90;;;;;;4942117;29;20339;-80
2021/06/09 05:14:30;;;;;;;;;;;20.50;99.90;;;;;;4941629;29;20314;-81
2021/06/09 05:16:59;;;;;;;;;;;20.70;99.90;;;;;;4942241;29;19929;-82
2021/06/09 05:19:26;;;;;;;;;;;20.90;99.90;;;;;;4941312;29;19969;-80
2021/06/09 05:21:55;;;;;;;;;;;21.20;99.90;;;;;;4941593;29;20358;-81
2021/06/09 05:24:25;;;;;;;;;;;21.30;99.90;;;;;;4941646;29;20048;-81
2021/06/09 05:26:52;;;;;;;;;;;21.60;99.90;;;;;;4942703;29;19998;-81
2021/06/09 05:29:18;;;;;;;;;;;22.10;99.90;;;;;;4942541;29;19947;-82
2021/06/09 05:31:46;;;;;;;;;;;22.60;99.90;;;;;;4924627;29;19922;-82
2021/06/09 05:34:14;;;;;;;;;;;23.30;99.90;;;;;;4940462;29;19929;-81
2021/06/09 05:36:40;;;;;;;;;;;23.70;99.90;;;;;;4940544;29;19923;-83
2021/06/09 05:39:06;;;;;;;;;;;23.80;99.90;;;;;;4944296;29;20017;-83
2021/06/09 05:41:32;;;;;;;;;;;24.00;99.90;;;;;;4943095;29;19977;-81
2021/06/09 05:43:59;;;;;;;;;;;24.50;99.90;;;;;;4940994;29;19934;-81
2021/06/09 05:46:27;;;;;;;;;;;24.80;99.90;;;;;;4942069;29;19950;-81
2021/06/09 05:48:53;;;;;;;;;;;25.10;99.90;;;;;;4941882;29;20005;-81
2021/06/09 05:51:22;;;;;;;;;;;25.20;99.90;;;;;;4943421;29;19972;-79
2021/06/09 05:53:52;;;;;;;;;;;25.40;99.90;;;;;;4940905;29;20026;-80
2021/06/09 05:56:34;;;;;;;;;;;25.40;99.90;;;;;;5002432;23;19927;-78
2021/06/09 05:59:09;;;;;;;;;;;25.70;99.90;;;;;;4956852;29;19929;-77
2021/06/09 06:01:42;;;;;;;;;;;26.00;99.90;;;;;;4955822;29;19926;-78
2021/06/09 06:04:13;;;;;;;;;;;26.10;99.90;;;;;;4955103;29;20013;-78
2021/06/09 06:06:41;;;;;;;;;;;26.50;99.90;;;;;;4955313;28;19928;-80
2021/06/09 06:09:07;;;;;;;;;;;26.80;99.90;;;;;;4956715;29;19928;-78
2021/06/09 06:11:34;;;;;;;;;;;27.00;99.90;;;;;;4956137;29;19929;-78
2021/06/09 06:14:04;;;;;;;;;;;27.10;99.90;;;;;;4958638;29;19922;-79
2021/06/09 06:16:30;;;;;;;;;;;27.40;99.90;;;;;;4955977;28;20008;-79
2021/06/09 06:18:56;;;;;;;;;;;27.70;99.90;;;;;;4954498;29;19922;-78
2021/06/09 06:21:23;;;;;;;;;;;27.80;99.90;;;;;;4955080;29;19981;-78
2021/06/09 06:23:51;;;;;;;;;;;27.90;99.90;;;;;;4955102;29;19981;-79
2021/06/09 06:26:18;;;;;;;;;;;27.80;99.90;;;;;;4953979;28;20454;-79
2021/06/09 06:28:44;;;;;;;;;;;27.80;99.90;;;;;;4954452;29;20025;-78
2021/06/09 06:31:11;;;;;;;;;;;27.90;99.90;;;;;;4954475;29;20009;-79
2021/06/09 06:33:38;;;;;;;;;;;27.90;99.90;;;;;;4954309;29;19930;-78
2021/06/09 06:36:05;;;;;;;;;;;28.10;99.90;;;;;;4954198;28;20475;-78
2021/06/09 06:38:36;;;;;;;;;;;28.20;99.90;;;;;;4954548;29;20379;-79
2021/06/09 06:41:03;;;;;;;;;;;28.80;99.90;;;;;;4955401;28;19926;-79
2021/06/09 06:43:30;;;;;;;;;;;29.20;99.90;;;;;;4958241;29;20096;-78
2021/06/09 06:45:56;;;;;;;;;;;29.60;99.90;;;;;;4958253;28;20033;-79
2021/06/09 06:48:23;;;;;;;;;;;29.80;99.90;;;;;;4958370;29;20021;-78
2021/06/09 06:50:49;;;;;;;;;;;29.60;99.90;;;;;;4961285;29;19986;-76
2021/06/09 06:53:16;;;;;;;;;;;29.90;99.90;;;;;;4958926;29;19930;-77
2021/06/09 06:55:42;;;;;;;;;;;29.80;99.90;;;;;;4958476;29;20009;-78
2021/06/09 06:58:10;;;;;;;;;;;29.90;99.90;;;;;;4957183;28;20416;-77
2021/06/09 07:00:36;;;;;;;;;;;29.90;99.90;;;;;;4957122;29;19922;-78
2021/06/09 07:03:02;;;;;;;;;;;30.00;99.90;;;;;;4957564;29;19922;-79
2021/06/09 07:05:32;;;;;;;;;;;30.10;99.90;;;;;;4957441;29;19922;-78
2021/06/09 07:08:00;;;;;;;;;;;30.60;99.90;;;;;;4957019;28;20339;-79
2021/06/09 07:10:26;;;;;;;;;;;30.90;99.90;;;;;;4945459;28;20354;-77
2021/06/09 07:12:54;;;;;;;;;;;31.20;99.90;;;;;;4935309;29;20405;-77
2021/06/09 07:15:22;;;;;;;;;;;31.00;99.90;;;;;;4936045;29;19966;-78
2021/06/09 07:17:49;;;;;;;;;;;30.70;99.90;;;;;;4937865;29;20045;-78
2021/06/09 07:20:18;;;;;;;;;;;30.50;99.90;;;;;;4937891;29;20317;-77
2021/06/09 07:22:45;;;;;;;;;;;30.50;99.90;;;;;;4937432;29;19933;-79
2021/06/09 07:25:12;;;;;;;;;;;30.60;99.90;;;;;;4937313;29;20358;-78
2021/06/09 07:27:40;;;;;;;;;;;30.60;99.90;;;;;;4937968;29;19922;-78
2021/06/09 07:30:07;;;;;;;;;;;30.60;99.90;;;;;;4937319;29;20009;-77
2021/06/09 07:32:37;;;;;;;;;;;30.30;99.90;;;;;;4951807;29;20394;-79
2021/06/09 07:35:04;;;;;;;;;;;30.30;99.90;;;;;;4957583;29;20291;-79
2021/06/09 07:37:33;;;;;;;;;;;30.00;99.90;;;;;;4957135;28;19956;-78
2021/06/09 07:40:01;;;;;;;;;;;30.50;99.90;;;;;;4961259;29;20043;-78
2021/06/09 07:42:28;;;;;;;;;;;30.90;99.90;;;;;;4959884;29;19926;-78
2021/06/09 07:44:57;;;;;;;;;;;31.30;99.90;;;;;;4959669;29;20020;-79
2021/06/09 07:47:23;;;;;;;;;;;31.10;99.90;;;;;;4961563;28;20008;-80
2021/06/09 07:49:53;;;;;;;;;;;31.40;99.90;;;;;;4961100;29;20116;-79
2021/06/09 07:52:20;;;;;;;;;;;31.60;99.90;;;;;;4955889;28;19993;-76
2021/06/09 07:54:47;;;;;;;;;;;31.80;99.90;;;;;;4957023;29;20457;-76
2021/06/09 07:57:13;;;;;;;;;;;31.70;99.90;;;;;;4958373;28;19945;-79
2021/06/09 07:59:40;;;;;;;;;;;31.60;99.90;;;;;;4959794;29;19949;-79
2021/06/09 08:02:07;;;;;;;;;;;31.80;99.90;;;;;;4960729;29;20013;-78
2021/06/09 08:04:34;;;;;;;;;;;31.70;99.90;;;;;;4959584;29;19922;-77
2021/06/09 08:07:02;;;;;;;;;;;31.50;99.90;;;;;;4958281;28;20005;-79
2021/06/09 08:09:30;;;;;;;;;;;31.30;99.90;;;;;;4959733;29;19964;-78
2021/06/09 08:11:57;;;;;;;;;;;31.40;99.90;;;;;;4957881;29;19922;-78
2021/06/09 08:14:23;;;;;;;;;;;31.20;99.90;;;;;;4957911;29;20017;-78
2021/06/09 08:16:50;;;;;;;;;;;31.30;99.90;;;;;;4956581;29;20022;-78
2021/06/09 08:19:16;;;;;;;;;;;30.90;99.90;;;;;;4956188;29;19926;-78
2021/06/09 08:21:42;;;;;;;;;;;30.90;99.90;;;;;;4955640;29;19931;-78
2021/06/09 08:24:10;;;;;;;;;;;30.80;99.90;;;;;;4955785;29;19923;-78
2021/06/09 08:26:36;;;;;;;;;;;31.10;99.90;;;;;;4955300;28;19997;-80
2021/06/09 08:29:03;;;;;;;;;;;31.10;99.90;;;;;;4948969;29;20364;-79
2021/06/09 08:31:30;;;;;;;;;;;31.00;99.90;;;;;;4952174;28;19930;-79
2021/06/09 08:33:57;;;;;;;;;;;31.30;99.90;;;;;;4954323;28;19935;-79
2021/06/09 08:36:23;;;;;;;;;;;31.30;99.90;;;;;;4959056;28;20001;-80
2021/06/09 08:38:51;;;;;;;;;;;31.50;99.90;;;;;;4967861;28;19926;-79
2021/06/09 08:41:20;;;;;;;;;;;31.60;99.90;;;;;;4976690;28;20341;-79
2021/06/09 08:43:48;;;;;;;;;;;31.50;99.90;;;;;;4977495;28;20455;-78
2021/06/09 08:46:15;;;;;;;;;;;31.50;99.90;;;;;;4977509;28;19922;-79
2021/06/09 08:48:42;;;;;;;;;;;31.60;99.90;;;;;;4975105;28;20029;-79
2021/06/09 08:51:09;;;;;;;;;;;31.60;99.90;;;;;;4977174;28;19957;-80
2021/06/09 08:53:36;;;;;;;;;;;31.60;99.90;;;;;;4975614;28;20221;-78
2021/06/09 08:56:03;;;;;;;;;;;31.50;99.90;;;;;;4975378;28;19922;-79
2021/06/09 08:58:30;;;;;;;;;;;31.00;99.90;;;;;;4975703;28;20509;-78
2021/06/09 09:00:58;;;;;;;;;;;31.10;99.90;;;;;;4975882;28;19922;-79
2021/06/09 09:03:24;;;;;;;;;;;30.90;99.90;;;;;;4975300;28;19990;-77
2021/06/09 09:05:50;;;;;;;;;;;30.70;99.90;;;;;;4975673;28;20018;-78
2021/06/09 09:08:16;;;;;;;;;;;30.80;99.90;;;;;;4976574;28;20040;-79
2021/06/09 09:10:43;;;;;;;;;;;30.60;99.90;;;;;;4976940;28;20020;-78
2021/06/09 09:13:09;;;;;;;;;;;31.00;99.90;;;;;;4976587;28;19961;-78
2021/06/09 09:15:36;;;;;;;;;;;30.90;99.90;;;;;;4976814;28;19969;-79
2021/06/09 09:18:04;;;;;;;;;;;30.10;99.90;;;;;;4976259;28;19977;-80
2021/06/09 09:20:31;;;;;;;;;;;30.10;99.90;;;;;;4977463;28;19922;-78
2021/06/09 09:22:58;;;;;;;;;;;30.30;99.90;;;;;;4977521;28;20088;-79
2021/06/09 09:25:26;;;;;;;;;;;30.60;99.90;;;;;;4979371;28;19954;-79
2021/06/09 09:27:53;;;;;;;;;;;30.80;99.90;;;;;;4978162;28;20060;-79
2021/06/09 09:30:19;;;;;;;;;;;30.70;99.90;;;;;;4978335;28;19921;-80
2021/06/09 09:32:58;;;;;;;;;;;30.90;99.90;;;;;;4977367;28;19926;-78
2021/06/09 09:35:26;;;;;;;;;;;30.90;99.90;;;;;;4974319;28;19921;-77
2021/06/09 09:38:08;;;;;;;;;;;31.20;99.90;;;;;;4973885;28;19922;-79
2021/06/09 09:40:34;;;;;;;;;;;31.30;99.90;;;;;;4975778;28;19985;-78
2021/06/09 09:43:00;;;;;;;;;;;31.60;99.90;;;;;;4974435;28;20024;-79
2021/06/09 09:45:28;;;;;;;;;;;31.30;99.90;;;;;;4975451;28;20297;-79
2021/06/09 09:48:07;;;;;;;;;;;30.70;99.90;;;;;;4976099;28;19922;-78
2021/06/09 09:50:34;;;;;;;;;;;29.80;99.90;;;;;;4976160;28;20008;-80
2021/06/09 09:53:17;;;;;;;;;;;29.70;99.90;;;;;;4975102;28;20013;-79
2021/06/09 09:56:10;;;;;;;;;;;29.60;99.90;;;;;;4957447;28;19922;-79
2021/06/09 09:58:37;;;;;;;;;;;29.60;99.90;;;;;;4955852;29;20347;-78
2021/06/09 10:01:11;;;;;;;;;;;29.80;99.90;;;;;;4956529;29;19922;-80
2021/06/09 10:03:39;;;;;;;;;;;29.90;99.90;;;;;;4955010;29;20024;-78
2021/06/09 10:06:16;;;;;;;;;;;29.70;99.90;;;;;;4955325;28;19926;-79
2021/06/09 10:08:42;;;;;;;;;;;29.60;99.90;;;;;;4955520;29;20335;-80
2021/06/09 10:11:09;;;;;;;;;;;29.50;99.90;;;;;;4954928;29;19922;-79
2021/06/09 10:13:35;;;;;;;;;;;29.30;99.90;;;;;;4954933;29;20009;-78
2021/06/09 10:16:02;;;;;;;;;;;29.30;99.90;;;;;;4954594;28;19985;-79
2021/06/09 10:18:28;;;;;;;;;;;29.20;99.90;;;;;;4954782;29;20402;-79
2021/06/09 10:20:56;;;;;;;;;;;29.10;99.90;;;;;;4957049;29;19922;-77
2021/06/09 10:23:32;;;;;;;;;;;29.00;99.90;;;;;;4953058;29;19922;-78
2021/06/09 10:26:05;;;;;;;;;;;28.90;99.90;;;;;;4954044;28;20276;-77
2021/06/09 10:28:53;;;;;;;;;;;29.00;99.90;;;;;;4955694;29;19965;-79
2021/06/09 10:31:19;;;;;;;;;;;28.70;99.90;;;;;;4955665;29;20443;-79
2021/06/09 10:33:46;;;;;;;;;;;28.70;99.90;;;;;;4954333;29;20013;-78
2021/06/09 10:36:15;;;;;;;;;;;28.80;99.90;;;;;;4954584;28;20024;-77
2021/06/09 10:38:43;;;;;;;;;;;28.60;99.90;;;;;;4954987;29;19932;-77
2021/06/09 10:41:09;;;;;;;;;;;28.60;99.90;;;;;;4954435;29;19929;-77
2021/06/09 10:43:37;;;;;;;;;;;28.50;99.90;;;;;;4955508;29;19930;-79
2021/06/09 10:46:03;;;;;;;;;;;28.60;99.90;;;;;;4955830;28;20338;-78
2021/06/09 10:48:30;;;;;;;;;;;28.70;99.90;;;;;;4955254;29;19971;-78
2021/06/09 10:50:56;;;;;;;;;;;28.80;99.90;;;;;;4954304;29;19929;-78
2021/06/09 10:53:24;;;;;;;;;;;28.80;99.90;;;;;;4954831;29;19922;-78
2021/06/09 10:55:50;;;;;;;;;;;28.70;99.90;;;;;;4955915;29;19922;-78
2021/06/09 11:01:19;;;;;;;;;;;28.60;99.90;;;;;;5000998;28;19916;-78
2021/06/09 11:03:47;;;;;;;;;;;28.70;99.90;;;;;;5011993;28;19922;-79
2021/06/09 11:06:13;;;;;;;;;;;28.70;99.90;;;;;;5009712;28;19996;-78
2021/06/09 11:08:41;;;;;;;;;;;28.80;99.90;;;;;;5018209;23;19933;-79
2021/06/09 11:11:18;;;;;;;;;;;28.60;99.90;;;;;;4954493;29;19932;-81
2021/06/09 11:13:46;;;;;;;;;;;28.40;99.90;;;;;;4955515;29;19970;-80
2021/06/09 11:16:13;;;;;;;;;;;28.30;99.90;;;;;;4957203;29;20036;-78
2021/06/09 11:18:41;;;;;;;;;;;28.40;99.90;;;;;;4958090;29;19922;-80
2021/06/09 11:21:08;;;;;;;;;;;28.40;99.90;;;;;;4956679;29;19970;-81
2021/06/09 11:23:37;;;;;;;;;;;28.40;99.90;;;;;;4958638;29;19996;-82
2021/06/09 11:26:06;;;;;;;;;;;28.50;99.90;;;;;;4958412;29;19929;-80
2021/06/09 11:28:36;;;;;;;;;;;28.50;99.90;;;;;;4959361;28;19926;-82
2021/06/09 11:31:03;;;;;;;;;;;28.50;99.90;;;;;;4961370;29;19958;-83
2021/06/09 11:33:37;;;;;;;;;;;28.50;99.90;;;;;;4960267;29;19923;-79
2021/06/09 11:36:04;;;;;;;;;;;28.60;99.90;;;;;;4962388;29;19922;-80
2021/06/09 11:38:31;;;;;;;;;;;28.80;99.90;;;;;;4962089;29;19976;-81
2021/06/09 11:40:59;;;;;;;;;;;29.00;99.90;;;;;;4962264;29;19981;-81
2021/06/09 11:43:29;;;;;;;;;;;29.10;99.90;;;;;;4960047;29;19989;-81
2021/06/09 11:45:58;;;;;;;;;;;29.00;99.90;;;;;;4960114;29;20009;-81
2021/06/09 11:48:25;;;;;;;;;;;29.00;99.90;;;;;;4961575;29;19922;-81
2021/06/09 11:50:53;;;;;;;;;;;29.00;99.90;;;;;;4960292;29;19926;-79
2021/06/09 11:53:36;;;;;;;;;;;29.00;99.90;;;;;;4962377;29;19997;-81
2021/06/09 11:56:20;;;;;;;;;;;29.10;99.90;;;;;;4960338;29;19923;-79
2021/06/09 11:58:51;;;;;;;;;;;29.10;99.90;;;;;;4960234;29;19950;-80
2021/06/09 12:01:18;;;;;;;;;;;29.10;99.90;;;;;;4960016;29;20360;-79
2021/06/09 12:03:44;;;;;;;;;;;29.30;99.90;;;;;;4959839;29;19922;-81
2021/06/09 12:06:11;;;;;;;;;;;29.20;99.90;;;;;;4959941;29;19968;-80
2021/06/09 12:08:38;;;;;;;;;;;29.30;99.90;;;;;;4960507;29;20021;-79
2021/06/09 12:11:04;;;;;;;;;;;29.30;99.90;;;;;;4959265;29;19929;-79
2021/06/09 12:13:30;;;;;;;;;;;29.40;99.90;;;;;;4957813;29;19949;-79
2021/06/09 12:16:10;;;;;;;;;;;29.50;99.90;;;;;;4957739;29;19977;-78
2021/06/09 12:18:36;;;;;;;;;;;29.50;99.90;;;;;;4957428;29;19922;-79
2021/06/09 12:21:07;;;;;;;;;;;29.40;99.90;;;;;;4958272;29;20272;-79
2021/06/09 12:23:33;;;;;;;;;;;29.50;99.90;;;;;;4958384;29;20012;-79
2021/06/09 12:25:59;;;;;;;;;;;29.50;99.90;;;;;;4959970;29;19985;-80
2021/06/09 12:28:25;;;;;;;;;;;29.50;99.90;;;;;;4959547;29;19929;-81
2021/06/09 12:30:53;;;;;;;;;;;29.50;99.90;;;;;;4959452;29;19923;-82
2021/06/09 12:33:32;;;;;;;;;;;29.50;99.90;;;;;;4958342;29;19937;-79
2021/06/09 12:35:58;;;;;;;;;;;29.50;99.90;;;;;;4961182;29;20008;-79
2021/06/09 12:38:26;;;;;;;;;;;29.50;99.90;;;;;;4958661;28;19989;-78
2021/06/09 12:40:52;;;;;;;;;;;29.30;99.90;;;;;;4957993;29;19949;-83
2021/06/09 12:43:21;;;;;;;;;;;29.30;99.90;;;;;;4957432;29;19973;-80
2021/06/09 12:45:47;;;;;;;;;;;29.30;99.90;;;;;;4959678;29;19972;-79
2021/06/09 12:48:16;;;;;;;;;;;29.30;99.90;;;;;;4958770;29;19973;-79
2021/06/09 12:50:45;;;;;;;;;;;29.30;99.90;;;;;;4958414;29;19986;-79
2021/06/09 12:53:12;;;;;;;;;;;29.30;99.90;;;;;;4959962;29;19926;-81
2021/06/09 12:55:39;;;;;;;;;;;29.50;99.90;;;;;;4958980;29;19930;-80
2021/06/09 12:58:06;;;;;;;;;;;29.50;99.90;;;;;;4959733;29;19949;-81
2021/06/09 13:00:36;;;;;;;;;;;29.60;99.90;;;;;;4959296;29;20438;-79
2021/06/09 13:03:20;;;;;;;;;;;29.60;99.90;;;;;;4957847;29;20051;-79
2021/06/09 13:05:51;;;;;;;;;;;29.60;99.90;;;;;;4958473;29;19981;-79
2021/06/09 13:08:18;;;;;;;;;;;29.30;99.90;;;;;;4958486;29;19927;-79
2021/06/09 13:10:45;;;;;;;;;;;29.30;99.90;;;;;;4957672;29;19922;-82
2021/06/09 13:13:12;;;;;;;;;;;29.30;99.90;;;;;;4957412;29;19930;-81
2021/06/09 13:15:38;;;;;;;;;;;29.20;99.90;;;;;;4958912;29;20029;-80
2021/06/09 13:18:06;;;;;;;;;;;29.10;99.90;;;;;;4959929;29;20017;-79
2021/06/09 13:20:33;;;;;;;;;;;29.20;99.90;;;;;;4957699;29;19949;-81
2021/06/09 13:23:03;;;;;;;;;;;29.40;99.90;;;;;;4956442;29;19923;-79
2021/06/09 13:25:32;;;;;;;;;;;29.40;99.90;;;;;;4961740;29;19969;-82
2021/06/09 13:27:58;;;;;;;;;;;29.40;99.90;;;;;;4960438;29;19922;-80
2021/06/09 13:30:25;;;;;;;;;;;29.30;99.90;;;;;;4961463;29;20077;-83
2021/06/09 13:32:51;;;;;;;;;;;29.40;99.90;;;;;;4961056;29;20555;-82
2021/06/09 13:35:19;;;;;;;;;;;29.40;99.90;;;;;;4962517;29;19981;-83
2021/06/09 13:37:47;;;;;;;;;;;29.50;99.90;;;;;;4961735;29;19923;-81
2021/06/09 13:40:21;;;;;;;;;;;29.50;99.90;;;;;;4961397;29;19922;-80
2021/06/09 13:42:55;;;;;;;;;;;29.40;99.90;;;;;;4960637;29;20178;-82
2021/06/09 13:45:22;;;;;;;;;;;29.30;99.90;;;;;;4960966;29;19927;-81
2021/06/09 13:47:48;;;;;;;;;;;29.10;99.90;;;;;;4961590;29;20072;-79
2021/06/09 13:50:16;;;;;;;;;;;29.10;99.90;;;;;;4959711;28;19981;-81
2021/06/09 13:52:43;;;;;;;;;;;29.10;99.90;;;;;;4959673;29;19922;-82
2021/06/09 13:55:11;;;;;;;;;;;29.10;99.90;;;;;;4960914;29;20003;-85
2021/06/09 13:57:45;;;;;;;;;;;29.00;99.90;;;;;;4964274;29;19923;-83
2021/06/09 14:00:12;;;;;;;;;;;29.00;99.90;;;;;;4959456;29;19973;-80
2021/06/09 14:02:41;;;;;;;;;;;29.00;99.90;;;;;;4960997;29;20021;-82
2021/06/09 14:05:14;;;;;;;;;;;29.10;99.90;;;;;;4961437;29;19922;-82
2021/06/09 14:07:41;;;;;;;;;;;29.10;99.90;;;;;;4961180;29;20275;-82
2021/06/09 14:10:08;;;;;;;;;;;29.10;99.90;;;;;;4962038;29;19965;-82
2021/06/09 14:12:35;;;;;;;;;;;29.10;99.90;;;;;;4960932;29;19926;-83
2021/06/09 14:15:12;;;;;;;;;;;29.00;99.90;;;;;;4960852;29;20006;-84
2021/06/09 14:17:38;;;;;;;;;;;29.00;99.90;;;;;;4961682;29;19937;-82
2021/06/09 14:20:06;;;;;;;;;;;29.00;99.90;;;;;;4960389;29;19961;-83
2021/06/09 14:22:34;;;;;;;;;;;29.00;99.90;;;;;;4959271;29;19929;-82
2021/06/09 14:25:08;;;;;;;;;;;28.90;99.90;;;;;;4960522;29;19977;-85
2021/06/09 14:27:46;;;;;;;;;;;28.90;99.90;;;;;;4960258;29;19923;-81
2021/06/09 14:30:15;;;;;;;;;;;28.90;99.90;;;;;;4961235;29;19926;-81
2021/06/09 14:33:04;;;;;;;;;;;28.90;99.90;;;;;;4957486;29;19922;-80